ZPPP METAR and TAF | Updated Today

ZPPP METAR

Kunming Changshui International Airport

Observation time: 50 min. ago

ZPPP 010700Z 21006MPS 9999 SCT023 SCT043 21/14 Q1020 NOSIG

Need help? Read our tutorial on how to read METARs or read the parsed version below.

Kunming Changshui International Airport (ZPPP) METAR

  • Weather conditions on Sat, 01 Oct 2022 07:00:00 +0000 (50 min. ago):
  • Present conditions: Dry
  • Clouds: Scattered at 701 meters; scattered at 1311 meters
  • Visibility: Greater than 10 km
  • Wind: 210 degrees at 6 knots
  • Temperature: 21 celsius
  • Dew point: 14 celsius
  • Pressure: 1020 millibars
  • Remarks: None


Useful to know...

ZPPP TAF

Kunming Changshui International Airport

TAF ZPPP 010306Z 0106/0206 16004MPS 9999 SCT020 BKN040 TX21/0108Z TN14/0123Z
Observation time: 4:44 hr. ago
Need help? Read our tutorial on how to read TAFs or read the parsed version below.

Parsed version of TAF for Kunming Changshui International Airport (ZPPP)

  • From 01 October at 06:00 UTC, to day 02 of the month at 06:00 UTC
  • Clouds: Scattered at 610 meters; broken sky at 1219 meters
  • Visibility: Greater than 10 km
  • Wind: 160 degrees at 4

Airports near ZPPP

No airports found within 100nm radius.